aviador You're here:

GMME Decoded Metar

RABAT in MOROCCO
Report Time2018-07-22 16:30:00
UTC Time2018-07-22 16:39:16
Flight Rules vfr VFR
Wind320° at 08 kt
W.Decomp.*RWY 03: 3.0 kt HW 7.4 kt LCW
W.Rank320° ranks 5
Current wind is above 320° avg. (6.7)
Visibility9999 m
Phenomena:N/A
Clouds:Scattered 016 Hf
Expected CloudBase > 2,400 ft AGL from Temp-Dew spread
CeilingNone
Temp24°C (ISA +9)
Dew Point18°C (69% RH)
AAT23.9°C
QNH1013 hPa
Density Alt1,621 ft
Elevation246 ft
Report Wrong Elevation
Raw Report
METAR GMME 221630Z 32008KT 280V010 9999 SCT016 24/18 Q1013 NOSIG=

Extra information for GMME:More info

Metar Taf Metar & Taf Last 4 Metars F.Rules Stats Wind Profile Meteogram Temp Stats Airport Information Weather charts Add Link Nearby VenuesMetar ALERT Operation Metar Decoded Social comments